Portsmouth International at Pease Airport Portsmouth US
ICAO: KPSM
IATA: PSM
Category: Medium
Scheduled Services: Yes

Elevation: 100 ft
TransAlt. 18000 ft.

Airport Communications:
BOSTON APP:125.05
ATIS:132.05
CLNC DEL:33.58
DEP:125.05
GCA:127.05
GND:120.95
ARW ANG OPS:134.1
TWR:128.4
UNICOM:122.95

KPSM Zoom In..

If you have problems with the map follow the link
https://www.worldairports.se/pages/airport.php?
ICAO=KPSM

Runways:

(A) RW 16 length 11321 ft width 150 ft
ILS 110.10 / hdg 165

(B) RW 34 length 11321 ft width 150 ft
ILS 110.10 / hdg 345

Location; KPSM
Day. 12 / Time. 09.56 Zulu
* Altimeter: 30.51
* Temperature: -05° c. -23°f.
* Wind from: 280° Speed 09 kn.
Dewpoint: -14° c.
Visibility: 10 Statute Miles.
Clouds: Clear (automated report).

KPSM 120956Z 28009KT 10SM CLR M05/M14 A3051 RMK AO2A SLP336 T10501143


Wind From 280°
Speed 09 kn.

 
 
jpsmedia worldairports.se 2019   terms of use